createdAt,value
2018-09-13T00:00:01.307Z,6.23
2018-09-13T00:02:30.074Z,5.50
2018-09-13T00:04:58.889Z,8.87
2018-09-13T00:07:27.772Z,9.20
2018-09-13T00:09:56.566Z,7.23
2018-09-13T00:12:25.422Z,6.70
2018-09-13T00:14:54.261Z,5.70
2018-09-13T00:17:22.985Z,5.57
2018-09-13T00:19:51.747Z,5.70
2018-09-13T00:22:20.393Z,7.50
2018-09-13T00:24:49.205Z,6.00
2018-09-13T00:27:18.006Z,7.13
2018-09-13T00:29:46.730Z,6.93
2018-09-13T00:32:15.425Z,8.27
2018-09-13T00:34:44.220Z,5.60
2018-09-13T00:37:13.057Z,6.20
2018-09-13T00:39:41.805Z,8.43
2018-09-13T00:42:10.507Z,6.50
2018-09-13T00:44:39.333Z,5.90
2018-09-13T00:47:12.597Z,6.00
2018-09-13T00:49:42.438Z,7.00
2018-09-13T00:52:11.266Z,5.03
2018-09-13T00:54:40.021Z,8.87
2018-09-13T00:57:09.007Z,7.83
2018-09-13T00:59:37.927Z,7.33
2018-09-13T01:02:06.971Z,8.20
2018-09-13T01:04:35.967Z,8.53
2018-09-13T01:07:04.820Z,9.80
2018-09-13T01:09:33.728Z,8.57
2018-09-13T01:12:02.589Z,5.83
2018-09-13T01:14:31.323Z,8.53
2018-09-13T01:17:00.118Z,8.13
2018-09-13T01:19:28.855Z,5.83
2018-09-13T01:21:57.656Z,9.43
2018-09-13T01:30:09.049Z,8.40
2018-09-13T01:32:37.796Z,6.13
2018-09-13T01:35:06.709Z,7.00
2018-09-13T01:37:35.576Z,5.13
2018-09-13T01:40:04.266Z,5.57
2018-09-13T01:42:32.988Z,7.50
2018-09-13T01:45:01.705Z,5.70
2018-09-13T01:47:30.541Z,6.20
2018-09-13T01:49:59.239Z,7.47
2018-09-13T01:52:28.005Z,6.43
2018-09-13T01:54:56.806Z,5.63
2018-09-13T01:57:25.680Z,5.33
2018-09-13T01:59:54.397Z,6.23
2018-09-13T02:02:23.199Z,5.80
2018-09-13T02:04:51.898Z,5.27
2018-09-13T02:07:20.693Z,5.27
2018-09-13T02:09:49.488Z,4.80
2018-09-13T02:12:18.370Z,5.87
2018-09-13T02:14:47.295Z,4.83
2018-09-13T02:17:16.118Z,5.77
2018-09-13T02:19:44.921Z,6.33
2018-09-13T02:22:13.721Z,7.17
2018-09-13T02:24:42.569Z,4.90
2018-09-13T02:27:11.518Z,5.23
2018-09-13T02:29:40.239Z,6.20
2018-09-13T02:32:09.121Z,6.97
2018-09-13T02:34:37.881Z,6.40
2018-09-13T02:37:06.815Z,5.00
2018-09-13T02:39:35.597Z,8.17
2018-09-13T02:42:05.562Z,5.40
2018-09-13T02:44:34.465Z,5.67
2018-09-13T02:47:03.601Z,6.13
2018-09-13T02:49:32.411Z,6.37
2018-09-13T02:52:01.333Z,5.30
2018-09-13T02:54:30.129Z,5.20
2018-09-13T02:56:59.038Z,7.37
2018-09-13T02:59:27.943Z,5.70
2018-09-13T03:01:56.682Z,6.67
2018-09-13T03:04:25.642Z,6.80
2018-09-13T03:06:54.394Z,6.27
2018-09-13T03:09:23.246Z,6.03
2018-09-13T03:11:52.018Z,7.27
2018-09-13T03:14:20.755Z,5.40
2018-09-13T03:16:49.638Z,6.70
2018-09-13T03:19:18.493Z,6.10
2018-09-13T03:21:47.291Z,5.77
2018-09-13T03:24:16.041Z,5.17
2018-09-13T03:26:44.857Z,7.20
2018-09-13T03:29:13.758Z,6.43
2018-09-13T03:34:33.781Z,6.40
2018-09-13T03:37:02.604Z,7.53
2018-09-13T03:39:31.463Z,7.43
2018-09-13T03:42:00.459Z,6.03
2018-09-13T03:44:29.174Z,5.80
2018-09-13T03:46:57.974Z,4.97
2018-09-13T03:49:26.756Z,7.30
2018-09-13T03:51:55.698Z,7.57
2018-09-13T03:54:24.521Z,6.57
2018-09-13T03:56:53.306Z,7.37
2018-09-13T03:59:22.124Z,5.57
2018-09-13T04:01:50.899Z,6.23
2018-09-13T04:04:19.633Z,6.73
2018-09-13T04:06:48.392Z,8.20
2018-09-13T04:09:17.148Z,5.57
2018-09-13T04:11:45.866Z,6.13
2018-09-13T04:14:14.623Z,6.87
2018-09-13T04:16:43.354Z,5.10
2018-09-13T04:19:12.230Z,5.57
2018-09-13T04:21:41.124Z,7.03
2018-09-13T04:24:09.938Z,6.47
2018-09-13T04:26:38.849Z,5.70
2018-09-13T04:29:07.689Z,4.90
2018-09-13T04:31:36.410Z,5.83
2018-09-13T04:34:05.262Z,7.30
2018-09-13T04:36:34.691Z,5.10
2018-09-13T04:39:04.186Z,4.83
2018-09-13T04:41:32.933Z,4.50
2018-09-13T04:44:01.649Z,4.97
2018-09-13T04:46:30.441Z,4.27
2018-09-13T04:48:59.245Z,5.60
2018-09-13T04:51:29.106Z,4.50
2018-09-13T04:53:57.986Z,4.40
2018-09-13T04:56:26.718Z,4.93
2018-09-13T04:58:55.492Z,5.23
2018-09-13T05:01:24.326Z,7.70
2018-09-13T05:03:53.096Z,5.03
2018-09-13T05:06:22.010Z,5.10
2018-09-13T05:08:50.801Z,4.07
2018-09-13T05:11:19.668Z,5.03
2018-09-13T05:13:48.785Z,5.43
2018-09-13T05:16:25.211Z,5.40
2018-09-13T05:18:54.011Z,8.80
2018-09-13T05:21:22.927Z,4.57
2018-09-13T05:23:51.821Z,5.47
2018-09-13T05:26:20.578Z,4.37
2018-09-13T05:28:49.468Z,6.27
2018-09-13T05:31:18.374Z,5.83
2018-09-13T05:33:47.158Z,4.13
2018-09-13T05:36:16.037Z,4.90
2018-09-13T05:38:44.880Z,6.53
2018-09-13T05:41:13.969Z,4.70
2018-09-13T05:43:42.821Z,4.27
2018-09-13T05:46:11.763Z,4.27
2018-09-13T05:48:40.554Z,6.27
2018-09-13T05:51:09.429Z,5.27
2018-09-13T05:53:38.285Z,4.23
2018-09-13T05:56:07.153Z,8.70
2018-09-13T05:58:35.942Z,4.93
2018-09-13T06:01:04.849Z,7.03
2018-09-13T06:03:33.719Z,6.53
2018-09-13T06:06:02.449Z,5.40
2018-09-13T06:08:31.329Z,7.37
2018-09-13T06:11:00.773Z,5.67
2018-09-13T06:13:29.651Z,5.27
2018-09-13T06:15:58.582Z,5.03
2018-09-13T06:18:27.832Z,4.80
2018-09-13T06:20:56.707Z,3.93
2018-09-13T06:23:25.614Z,4.10
2018-09-13T06:25:54.377Z,5.13
2018-09-13T06:28:23.127Z,7.30
2018-09-13T06:30:51.877Z,5.83
2018-09-13T06:33:31.610Z,5.27
2018-09-13T06:36:00.434Z,3.87
2018-09-13T06:38:29.300Z,3.20
2018-09-13T06:40:58.021Z,4.03
2018-09-13T06:43:26.792Z,3.93
2018-09-13T06:45:55.682Z,4.93
2018-09-13T06:48:24.490Z,4.70
2018-09-13T06:50:53.343Z,3.93
2018-09-13T06:53:22.049Z,5.20
2018-09-13T06:55:50.880Z,4.77
2018-09-13T06:58:19.636Z,4.37
2018-09-13T07:00:48.464Z,5.30
2018-09-13T07:03:17.553Z,5.73
2018-09-13T07:05:46.381Z,5.10
2018-09-13T07:08:15.241Z,4.90
2018-09-13T07:10:44.121Z,5.43
2018-09-13T07:13:12.882Z,5.37
2018-09-13T07:15:41.677Z,6.07
2018-09-13T07:18:10.464Z,8.20
2018-09-13T07:20:40.473Z,6.03
2018-09-13T07:23:12.473Z,7.57
2018-09-13T07:25:47.967Z,5.83
2018-09-13T07:28:16.752Z,4.90
2018-09-13T07:30:57.928Z,9.53
2018-09-13T07:33:27.726Z,6.80
2018-09-13T07:36:02.604Z,7.17
2018-09-13T07:38:48.201Z,10.13
2018-09-13T07:41:17.062Z,6.57
2018-09-13T07:43:47.077Z,6.73
2018-09-13T07:46:15.870Z,13.83
2018-09-13T07:48:46.900Z,10.77
2018-09-13T07:51:25.483Z,6.77
2018-09-13T07:53:54.392Z,9.67
2018-09-13T07:56:23.261Z,7.37
2018-09-13T07:58:55.187Z,6.90
2018-09-13T08:01:24.010Z,11.23
2018-09-13T08:03:54.185Z,7.13
2018-09-13T08:06:23.207Z,7.30
2018-09-13T08:08:52.333Z,12.40
2018-09-13T08:11:25.273Z,6.23
2018-09-13T08:13:54.266Z,6.30
2018-09-13T08:16:23.101Z,6.37
2018-09-13T08:18:51.814Z,6.63
2018-09-13T08:21:20.817Z,8.63
2018-09-13T08:23:49.602Z,7.23
2018-09-13T08:26:19.581Z,6.90
2018-09-13T08:28:48.430Z,7.80
2018-09-13T08:31:17.194Z,7.47
2018-09-13T08:33:46.048Z,6.63
2018-09-13T08:36:14.986Z,11.00
2018-09-13T08:38:43.735Z,7.50
2018-09-13T08:41:12.670Z,7.77
2018-09-13T08:43:45.639Z,10.47
2018-09-13T08:46:19.653Z,8.80
2018-09-13T08:48:49.493Z,9.53
2018-09-13T08:51:18.428Z,9.07
2018-09-13T08:53:50.433Z,9.37
2018-09-13T08:56:21.358Z,8.73
2018-09-13T09:01:55.818Z,8.87
2018-09-13T09:04:24.579Z,9.60
2018-09-13T09:06:59.623Z,9.30
2018-09-13T09:09:28.533Z,7.27
2018-09-13T09:11:57.339Z,8.90
2018-09-13T09:14:26.177Z,7.57
2018-09-13T09:16:54.997Z,9.63
2018-09-13T09:19:24.230Z,7.03
2018-09-13T09:21:53.081Z,7.70
2018-09-13T09:24:21.923Z,8.03
2018-09-13T09:26:52.697Z,9.30
2018-09-13T09:29:21.958Z,8.03
2018-09-13T09:31:50.726Z,8.73
2018-09-13T09:34:19.670Z,10.27
2018-09-13T09:36:48.468Z,9.80
2018-09-13T09:39:18.390Z,9.27
2018-09-13T09:41:47.244Z,6.87
2018-09-13T09:44:16.150Z,6.63
2018-09-13T09:46:44.865Z,7.53
2018-09-13T09:49:13.818Z,8.40
2018-09-13T09:51:42.801Z,6.80
2018-09-13T09:54:17.718Z,8.50
2018-09-13T09:56:46.581Z,8.70
2018-09-13T09:59:15.344Z,7.43
2018-09-13T10:01:49.626Z,6.70
2018-09-13T10:04:18.428Z,7.67
2018-09-13T10:06:47.366Z,6.20
2018-09-13T10:09:16.236Z,7.03
2018-09-13T10:11:45.266Z,9.73
2018-09-13T10:14:14.242Z,8.20
2018-09-13T10:16:48.586Z,6.90
2018-09-13T10:19:26.242Z,9.47
2018-09-13T10:22:00.487Z,6.70
2018-09-13T10:24:39.874Z,9.83
2018-09-13T10:27:14.254Z,6.10
2018-09-13T10:29:48.571Z,9.70
2018-09-13T10:32:22.744Z,7.33
2018-09-13T10:34:56.995Z,9.10
2018-09-13T10:37:31.214Z,6.77
2018-09-13T10:40:05.430Z,6.90
2018-09-13T10:42:39.523Z,10.23
2018-09-13T10:45:13.863Z,6.10
2018-09-13T10:47:56.485Z,8.53
2018-09-13T10:50:22.326Z,7.23
2018-09-13T10:52:55.759Z,7.83
2018-09-13T10:55:24.657Z,6.00
2018-09-13T10:57:53.413Z,5.57
2018-09-13T11:00:23.391Z,6.27
2018-09-13T11:02:52.379Z,6.30
2018-09-13T11:05:21.139Z,5.27
2018-09-13T11:07:50.014Z,6.53
2018-09-13T11:10:18.725Z,6.47
2018-09-13T11:12:49.157Z,5.67
2018-09-13T11:15:22.922Z,5.47
2018-09-13T11:20:43.404Z,5.93
2018-09-13T11:23:12.258Z,7.03
2018-09-13T11:25:41.245Z,6.20
2018-09-13T11:28:10.074Z,7.00
2018-09-13T11:30:38.820Z,5.63
2018-09-13T11:33:07.782Z,5.60
2018-09-13T11:35:36.600Z,5.83
2018-09-13T11:38:13.198Z,6.53
2018-09-13T11:40:42.069Z,6.07
2018-09-13T11:43:10.916Z,8.87
2018-09-13T11:45:39.584Z,7.97
2018-09-13T11:48:08.457Z,5.63
2018-09-13T11:50:37.267Z,6.87
2018-09-13T11:53:06.028Z,8.73
2018-09-13T11:55:39.084Z,10.07
2018-09-13T11:58:13.215Z,11.10
2018-09-13T12:00:42.578Z,5.83
2018-09-13T12:03:12.355Z,7.10
2018-09-13T12:05:41.069Z,6.53
2018-09-13T12:08:18.753Z,7.77
2018-09-13T12:10:47.575Z,8.20
2018-09-13T12:13:27.196Z,10.53
2018-09-13T12:15:56.161Z,8.30
2018-09-13T12:18:25.064Z,7.10
2018-09-13T12:20:53.738Z,8.97
2018-09-13T12:23:22.758Z,5.97
2018-09-13T12:25:51.597Z,6.57
2018-09-13T12:28:20.357Z,6.50
2018-09-13T12:30:49.919Z,6.30
2018-09-13T12:33:23.760Z,8.40
2018-09-13T12:35:52.517Z,6.87
2018-09-13T12:38:21.325Z,5.60
2018-09-13T12:40:50.310Z,6.70
2018-09-13T12:43:19.141Z,6.67
2018-09-13T12:45:48.049Z,6.40
2018-09-13T12:48:16.809Z,7.83
2018-09-13T12:50:45.646Z,9.00
2018-09-13T12:53:14.489Z,6.17
2018-09-13T12:55:48.593Z,6.07
2018-09-13T12:58:17.422Z,5.87
2018-09-13T13:00:46.318Z,7.03
2018-09-13T13:03:15.077Z,6.47
2018-09-13T13:05:43.941Z,5.90
2018-09-13T13:08:12.918Z,6.47
2018-09-13T13:10:41.694Z,7.50
2018-09-13T13:13:10.414Z,7.53
2018-09-13T13:15:39.220Z,9.77
2018-09-13T13:18:08.078Z,7.50
2018-09-13T13:20:36.863Z,8.97
2018-09-13T13:23:05.790Z,6.73
2018-09-13T13:25:34.605Z,6.03
2018-09-13T13:28:03.368Z,6.80
2018-09-13T13:30:44.088Z,7.40
2018-09-13T13:33:12.893Z,7.77
2018-09-13T13:35:59.154Z,11.07
2018-09-13T13:38:32.951Z,9.67
2018-09-13T13:41:01.899Z,7.20
2018-09-13T13:43:30.726Z,7.13
2018-09-13T13:46:08.409Z,6.73
2018-09-13T13:48:37.227Z,9.93
2018-09-13T13:51:06.010Z,6.67
2018-09-13T13:53:35.077Z,9.67
2018-09-13T13:56:03.974Z,8.27
2018-09-13T13:58:33.039Z,5.57
2018-09-13T14:01:02.076Z,9.00
2018-09-13T14:03:30.957Z,8.00
2018-09-13T14:05:59.706Z,9.27
2018-09-13T14:08:28.437Z,7.47
2018-09-13T14:10:57.265Z,6.80
2018-09-13T14:13:26.116Z,7.10
2018-09-13T14:15:55.031Z,6.87
2018-09-13T14:18:23.926Z,8.20
2018-09-13T14:20:52.847Z,8.60
2018-09-13T14:23:21.537Z,6.50
2018-09-13T14:25:50.318Z,6.90
2018-09-13T14:28:19.149Z,6.67
2018-09-13T14:30:48.053Z,6.33
2018-09-13T14:33:16.986Z,7.80
2018-09-13T14:35:45.882Z,7.20
2018-09-13T14:38:14.830Z,6.77
2018-09-13T14:40:43.586Z,6.20
2018-09-13T14:43:22.269Z,5.50
2018-09-13T14:46:03.691Z,5.60
2018-09-13T14:48:32.494Z,6.27
2018-09-13T14:51:01.271Z,5.10
2018-09-13T14:53:30.267Z,4.30
2018-09-13T14:55:59.113Z,4.00
2018-09-13T14:58:27.965Z,5.37
2018-09-13T15:00:56.810Z,5.00
2018-09-13T15:03:25.786Z,4.40
2018-09-13T15:05:54.466Z,5.20
2018-09-13T15:08:23.193Z,6.63
2018-09-13T15:10:52.010Z,5.20
2018-09-13T15:13:20.953Z,5.00
2018-09-13T15:15:49.829Z,4.13
2018-09-13T15:18:18.790Z,4.83
2018-09-13T15:20:47.645Z,5.37
2018-09-13T15:23:16.622Z,4.40
2018-09-13T15:25:45.670Z,4.00
2018-09-13T15:28:14.427Z,8.50
2018-09-13T15:30:55.703Z,3.70
2018-09-13T15:33:24.725Z,4.70
2018-09-13T15:35:53.689Z,3.60
2018-09-13T15:38:22.617Z,5.23
2018-09-13T15:40:51.431Z,5.17
2018-09-13T15:43:20.179Z,4.77
2018-09-13T15:45:49.347Z,6.03
2018-09-13T15:48:18.353Z,5.53
2018-09-13T15:50:47.369Z,5.70
2018-09-13T15:53:16.240Z,4.57
2018-09-13T15:55:48.197Z,4.87
2018-09-13T15:58:16.932Z,4.83
2018-09-13T16:00:45.906Z,4.47
2018-09-13T16:03:14.690Z,5.80
2018-09-13T16:05:51.091Z,4.63
2018-09-13T16:08:19.991Z,4.60
2018-09-13T16:10:48.922Z,2.60
2018-09-13T16:13:17.813Z,5.50
2018-09-13T16:15:46.802Z,4.00
2018-09-13T16:18:15.601Z,4.23
2018-09-13T16:20:44.782Z,4.83
2018-09-13T16:23:13.690Z,4.53
2018-09-13T16:25:43.101Z,3.27
2018-09-13T16:28:12.034Z,3.47
2018-09-13T16:30:51.730Z,3.60
2018-09-13T16:33:21.079Z,3.50
2018-09-13T16:35:52.987Z,5.57
2018-09-13T16:38:29.358Z,3.90
2018-09-13T16:41:04.426Z,3.03
2018-09-13T16:43:38.703Z,3.40
2018-09-13T16:46:08.898Z,7.13
2018-09-13T16:48:44.611Z,4.53
2018-09-13T16:51:13.612Z,3.57
2018-09-13T16:53:42.517Z,4.03
2018-09-13T16:56:11.445Z,4.97
2018-09-13T16:58:40.175Z,4.30
2018-09-13T17:01:09.101Z,3.10
2018-09-13T17:03:37.896Z,4.03
2018-09-13T17:06:06.772Z,3.47
2018-09-13T17:08:41.702Z,3.43
2018-09-13T17:11:10.842Z,3.23
2018-09-13T17:13:39.748Z,2.90
2018-09-13T17:16:08.722Z,3.77
2018-09-13T17:18:37.552Z,3.13
2018-09-13T17:21:06.533Z,4.37
2018-09-13T17:23:36.114Z,2.80
2018-09-13T17:26:05.079Z,5.63
2018-09-13T17:28:33.844Z,4.07
2018-09-13T17:31:02.639Z,3.83
2018-09-13T17:33:31.512Z,2.53
2018-09-13T17:36:00.522Z,2.50
2018-09-13T17:38:29.440Z,3.50
2018-09-13T17:40:58.203Z,2.53
2018-09-13T17:43:27.094Z,3.13
2018-09-13T17:45:56.001Z,3.27
2018-09-13T17:48:24.812Z,3.13
2018-09-13T17:50:54.857Z,3.17
2018-09-13T17:53:23.735Z,3.33
2018-09-13T17:55:52.746Z,2.67
2018-09-13T17:58:21.596Z,2.40
2018-09-13T18:00:50.423Z,3.53
2018-09-13T18:03:19.225Z,2.80
2018-09-13T18:05:48.104Z,2.70
2018-09-13T18:08:21.940Z,2.70
2018-09-13T18:10:50.668Z,4.27
2018-09-13T18:13:19.549Z,3.77
2018-09-13T18:15:48.360Z,3.50
2018-09-13T18:18:17.180Z,3.17
2018-09-13T18:20:45.908Z,3.57
2018-09-13T18:23:14.840Z,3.60
2018-09-13T18:25:43.715Z,3.37
2018-09-13T18:28:12.452Z,3.57
2018-09-13T18:30:41.334Z,3.07
2018-09-13T18:33:10.170Z,3.60
2018-09-13T18:35:39.128Z,3.73
2018-09-13T18:38:08.349Z,4.07
2018-09-13T18:40:37.222Z,4.03
2018-09-13T18:43:05.999Z,4.77
2018-09-13T18:45:34.960Z,3.67
2018-09-13T18:48:03.953Z,4.07
2018-09-13T18:50:32.835Z,5.37
2018-09-13T18:53:01.638Z,3.80
2018-09-13T18:55:30.586Z,4.30
2018-09-13T18:57:59.578Z,4.73
2018-09-13T19:00:32.559Z,5.47
2018-09-13T19:03:01.493Z,5.10
2018-09-13T19:05:30.215Z,5.93
2018-09-13T19:07:59.136Z,4.60
2018-09-13T19:10:28.170Z,4.90
2018-09-13T19:12:57.331Z,5.77
2018-09-13T19:15:26.154Z,6.63
2018-09-13T19:17:54.905Z,4.97
2018-09-13T19:20:23.643Z,5.03
2018-09-13T19:22:52.982Z,5.30
2018-09-13T19:25:21.802Z,5.33
2018-09-13T19:27:50.546Z,6.40
2018-09-13T19:30:19.393Z,9.63
2018-09-13T19:32:48.236Z,6.57
2018-09-13T19:35:28.892Z,6.60
2018-09-13T19:37:57.638Z,7.30
2018-09-13T19:40:26.454Z,6.30
2018-09-13T19:42:55.398Z,8.13
2018-09-13T19:45:39.741Z,7.17
2018-09-13T19:48:08.468Z,6.90
2018-09-13T19:50:37.411Z,8.43
2018-09-13T19:53:06.541Z,7.97
2018-09-13T19:55:50.889Z,10.90
2018-09-13T19:58:19.700Z,7.93
2018-09-13T20:00:48.705Z,12.23
2018-09-13T20:03:17.545Z,9.20
2018-09-13T20:05:46.446Z,8.20
2018-09-13T20:08:15.378Z,9.13
2018-09-13T20:10:44.249Z,8.03
2018-09-13T20:13:13.023Z,7.67
2018-09-13T20:15:41.968Z,10.53
2018-09-13T20:18:10.691Z,6.90
2018-09-13T20:20:39.389Z,9.50
2018-09-13T20:23:08.166Z,7.40
2018-09-13T20:25:37.125Z,7.20
2018-09-13T20:28:06.078Z,7.27
2018-09-13T20:30:34.886Z,7.03
2018-09-13T20:33:03.705Z,6.47
2018-09-13T20:35:32.736Z,7.00
2018-09-13T20:38:03.619Z,5.60
2018-09-13T20:40:32.425Z,8.13
2018-09-13T20:43:01.205Z,7.37
2018-09-13T20:45:30.390Z,5.83
2018-09-13T20:47:59.169Z,5.70
2018-09-13T20:50:27.957Z,7.83
2018-09-13T20:52:56.943Z,4.03
2018-09-13T20:55:25.717Z,4.00
2018-09-13T20:57:59.618Z,4.80
2018-09-13T21:00:28.609Z,4.80
2018-09-13T21:02:57.409Z,5.90
2018-09-13T21:05:26.137Z,4.03
2018-09-13T21:07:55.113Z,4.87
2018-09-13T21:10:24.084Z,4.17
2018-09-13T21:12:52.822Z,4.43
2018-09-13T21:15:21.571Z,4.60
2018-09-13T21:17:50.424Z,3.73
2018-09-13T21:20:19.335Z,3.47
2018-09-13T21:22:48.276Z,4.37
2018-09-13T21:25:17.192Z,3.73
2018-09-13T21:27:46.398Z,2.97
2018-09-13T21:30:15.273Z,3.00
2018-09-13T21:32:44.178Z,3.67
2018-09-13T21:35:12.985Z,3.53
2018-09-13T21:37:41.842Z,3.33
2018-09-13T21:40:10.965Z,2.87
2018-09-13T21:42:39.995Z,3.20
2018-09-13T21:45:09.000Z,3.37
2018-09-13T21:47:38.114Z,3.63
2018-09-13T21:50:07.109Z,5.63
2018-09-13T21:52:35.950Z,3.60
2018-09-13T21:55:04.940Z,3.90
2018-09-13T21:57:33.809Z,2.50
2018-09-13T22:00:02.695Z,3.10
2018-09-13T22:02:31.437Z,3.40
2018-09-13T22:05:02.436Z,3.27
2018-09-13T22:07:31.315Z,3.63
2018-09-13T22:10:00.149Z,3.40
2018-09-13T22:12:29.222Z,5.80
2018-09-13T22:14:58.048Z,3.00
2018-09-13T22:17:26.798Z,3.77
2018-09-13T22:19:55.709Z,3.83
2018-09-13T22:22:24.638Z,3.20
2018-09-13T22:24:53.468Z,4.30
2018-09-13T22:27:22.498Z,3.47
2018-09-13T22:29:51.536Z,3.87
2018-09-13T22:32:20.310Z,3.80
2018-09-13T22:34:49.255Z,3.60
2018-09-13T22:37:18.258Z,4.30
2018-09-13T22:39:47.249Z,4.33
2018-09-13T22:42:17.163Z,3.50
2018-09-13T22:44:56.898Z,4.30
2018-09-13T22:47:25.766Z,3.50
2018-09-13T22:49:54.822Z,3.67
2018-09-13T22:52:23.598Z,4.63
2018-09-13T22:54:52.387Z,3.57
2018-09-13T22:57:21.772Z,2.77
2018-09-13T22:59:50.733Z,3.53
2018-09-13T23:02:20.678Z,3.27
2018-09-13T23:04:49.469Z,2.63
2018-09-13T23:07:18.302Z,2.70
2018-09-13T23:09:47.112Z,6.13
2018-09-13T23:12:16.045Z,3.47
2018-09-13T23:14:44.873Z,2.37
2018-09-13T23:17:13.762Z,2.67
2018-09-13T23:19:42.653Z,2.10
2018-09-13T23:22:11.516Z,2.10
2018-09-13T23:24:40.441Z,2.57
2018-09-13T23:27:10.037Z,2.57
2018-09-13T23:29:39.040Z,1.90
2018-09-13T23:32:07.823Z,1.87
2018-09-13T23:34:36.673Z,1.80
2018-09-13T23:37:05.490Z,2.00
2018-09-13T23:39:34.705Z,1.67
2018-09-13T23:42:03.074Z,3.13
2018-09-13T23:44:31.841Z,2.03
2018-09-13T23:47:00.786Z,1.83
2018-09-13T23:49:29.654Z,2.47
2018-09-13T23:51:58.461Z,2.37
2018-09-13T23:54:27.302Z,1.57
2018-09-13T23:56:56.090Z,2.03
2018-09-13T23:59:24.932Z,1.60
